createdAt,value
2017-04-17T00:01:25.208Z,0
2017-04-17T00:11:39.076Z,0
2017-04-17T00:21:53.162Z,0
2017-04-17T00:32:08.430Z,0
2017-04-17T00:42:24.086Z,0
2017-04-17T00:52:38.805Z,0
2017-04-17T01:02:53.525Z,0
2017-04-17T01:13:07.544Z,0
2017-04-17T01:23:22.504Z,0
2017-04-17T01:33:37.992Z,0
2017-04-17T01:43:53.465Z,0
2017-04-17T01:54:08.505Z,0
2017-04-17T02:04:23.389Z,0
2017-04-17T02:14:38.773Z,0
2017-04-17T02:24:52.699Z,0
2017-04-17T02:35:08.040Z,0
2017-04-17T02:45:21.855Z,0
2017-04-17T02:55:35.674Z,0
2017-04-17T03:05:49.392Z,0
2017-04-17T03:16:04.027Z,0
2017-04-17T03:26:18.649Z,0
2017-04-17T03:36:32.927Z,0
2017-04-17T03:46:46.841Z,0
2017-04-17T03:57:01.280Z,0
2017-04-17T04:07:15.459Z,0
2017-04-17T04:17:30.557Z,0
2017-04-17T04:27:44.375Z,5
2017-04-17T04:37:59.400Z,15
2017-04-17T04:48:13.114Z,25
2017-04-17T04:58:27.115Z,45
2017-04-17T05:08:41.379Z,50
2017-04-17T05:18:56.415Z,80
2017-04-17T05:29:11.801Z,60
2017-04-17T05:39:26.444Z,105
2017-04-17T05:49:40.722Z,105
2017-04-17T05:59:55.938Z,270
2017-04-17T06:10:10.878Z,305
2017-04-17T06:20:25.398Z,305
2017-04-17T06:30:39.557Z,300
2017-04-17T06:40:54.275Z,315
2017-04-17T06:51:08.739Z,380
2017-04-17T07:01:23.223Z,435
2017-04-17T07:11:36.972Z,335
2017-04-17T07:21:51.061Z,940
2017-04-17T07:32:06.588Z,605
2017-04-17T07:42:21.254Z,1270
2017-04-17T07:52:36.917Z,210
2017-04-17T08:02:50.767Z,570
2017-04-17T08:13:06.073Z,230
2017-04-17T08:23:20.608Z,1565
2017-04-17T08:33:34.413Z,330
2017-04-17T08:43:48.349Z,1490
2017-04-17T08:54:02.776Z,675
2017-04-17T09:04:18.420Z,1595
2017-04-17T09:14:34.134Z,395
2017-04-17T09:24:48.408Z,455
2017-04-17T09:35:02.884Z,965
2017-04-17T09:45:18.685Z,1430
2017-04-17T09:55:33.399Z,675
2017-04-17T10:05:48.024Z,585
2017-04-17T10:16:02.210Z,1760
2017-04-17T10:26:16.675Z,1805
2017-04-17T10:36:32.442Z,1785
2017-04-17T10:46:47.539Z,1780
2017-04-17T10:57:02.527Z,1725
2017-04-17T11:07:17.135Z,740
2017-04-17T11:17:33.009Z,440
2017-04-17T11:27:47.771Z,1335
2017-04-17T11:38:01.847Z,3790
2017-04-17T11:48:15.750Z,835
2017-04-17T11:58:30.945Z,245
2017-04-17T12:08:45.266Z,2300
2017-04-17T12:19:01.052Z,2140
2017-04-17T12:29:15.738Z,2015
2017-04-17T12:39:30.030Z,2135
2017-04-17T12:49:44.220Z,770
2017-04-17T12:59:59.118Z,490
2017-04-17T13:10:12.993Z,145
2017-04-17T13:20:27.271Z,485
2017-04-17T13:30:41.027Z,1995
2017-04-17T13:40:56.706Z,1755
2017-04-17T13:51:12.216Z,1875
2017-04-17T14:01:26.714Z,975
2017-04-17T14:11:42.525Z,350
2017-04-17T14:21:57.698Z,230
2017-04-17T14:32:13.281Z,365
2017-04-17T14:42:28.895Z,370
2017-04-17T14:52:43.671Z,610
2017-04-17T15:02:58.448Z,635
2017-04-17T15:13:13.030Z,650
2017-04-17T15:23:27.807Z,285
2017-04-17T15:33:42.720Z,255
2017-04-17T15:43:58.096Z,335
2017-04-17T15:54:13.185Z,420
2017-04-17T16:04:28.652Z,1085
2017-04-17T16:14:42.728Z,265
2017-04-17T16:24:56.702Z,435
2017-04-17T16:35:10.766Z,755
2017-04-17T16:45:25.077Z,465
2017-04-17T16:55:39.046Z,240
2017-04-17T17:05:53.138Z,175
2017-04-17T17:16:06.986Z,150
2017-04-17T17:26:22.579Z,195
2017-04-17T17:36:37.425Z,145
2017-04-17T17:46:51.702Z,110
2017-04-17T17:57:06.563Z,95
2017-04-17T18:07:20.838Z,65
2017-04-17T18:17:36.207Z,35
2017-04-17T18:27:50.912Z,15
2017-04-17T18:38:04.822Z,5
2017-04-17T18:48:19.442Z,0
2017-04-17T18:58:34.480Z,0
2017-04-17T19:19:03.751Z,0
2017-04-17T19:29:18.772Z,0
2017-04-17T19:39:32.961Z,0
2017-04-17T19:49:47.926Z,0
2017-04-17T20:00:01.681Z,0
2017-04-17T20:10:16.242Z,0
2017-04-17T20:20:31.473Z,0
2017-04-17T20:30:45.744Z,0
2017-04-17T20:41:00.548Z,0
2017-04-17T20:51:16.189Z,0
2017-04-17T21:01:30.912Z,0
2017-04-17T21:11:45.471Z,0
2017-04-17T21:21:59.917Z,0
2017-04-17T21:32:13.909Z,0
2017-04-17T21:42:29.375Z,0
2017-04-17T21:52:43.419Z,0
2017-04-17T22:02:57.766Z,0
2017-04-17T22:13:12.041Z,0
2017-04-17T22:23:26.380Z,0
2017-04-17T22:33:40.333Z,0
2017-04-17T22:43:54.602Z,0
2017-04-17T22:54:09.120Z,0
2017-04-17T23:04:23.335Z,0
2017-04-17T23:14:37.426Z,0
2017-04-17T23:24:52.394Z,0
2017-04-17T23:35:07.272Z,0
2017-04-17T23:45:20.997Z,0
2017-04-17T23:55:35.238Z,0
